createdAt,value
2023-05-03T00:00:13.652Z,98.47
2023-05-03T00:02:40.585Z,96.60
2023-05-03T00:05:12.298Z,95.55
2023-05-03T00:07:40.328Z,97.22
2023-05-03T00:10:08.427Z,98.28
2023-05-03T00:12:35.030Z,99.32
2023-05-03T00:15:01.682Z,98.35
2023-05-03T00:17:28.498Z,100.32
2023-05-03T00:19:56.321Z,100.45
2023-05-03T00:22:23.350Z,102.53
2023-05-03T00:24:51.172Z,96.18
2023-05-03T00:27:18.642Z,98.70
2023-05-03T00:29:45.998Z,99.10
2023-05-03T00:32:12.738Z,98.70
2023-05-03T00:34:39.360Z,97.85
2023-05-03T00:37:05.945Z,99.00
2023-05-03T00:39:32.926Z,101.88
2023-05-03T00:42:01.392Z,95.85
2023-05-03T00:44:28.193Z,98.75
2023-05-03T00:46:55.594Z,102.10
2023-05-03T00:49:24.328Z,97.60
2023-05-03T00:51:53.379Z,95.80
2023-05-03T00:54:21.025Z,106.57
2023-05-03T00:56:51.534Z,98.15
2023-05-03T00:59:20.013Z,103.43
2023-05-03T01:01:51.588Z,101.93
2023-05-03T01:04:20.123Z,98.13
2023-05-03T01:07:11.378Z,99.45
2023-05-03T01:09:51.700Z,101.70
2023-05-03T01:12:38.633Z,96.75
2023-05-03T01:15:26.036Z,97.53
2023-05-03T01:17:59.598Z,99.10
2023-05-03T01:20:30.871Z,98.10
2023-05-03T01:23:05.252Z,98.78
2023-05-03T01:25:32.660Z,99.82
2023-05-03T01:27:59.798Z,98.10
2023-05-03T01:30:30.273Z,101.28
2023-05-03T01:33:14.000Z,97.93
2023-05-03T01:35:47.453Z,97.40
2023-05-03T01:38:14.852Z,98.30
2023-05-03T01:40:47.256Z,97.38
2023-05-03T01:43:16.963Z,101.40
2023-05-03T01:45:44.461Z,96.65
2023-05-03T01:48:13.257Z,98.85
2023-05-03T01:50:39.896Z,97.32
2023-05-03T01:53:06.556Z,99.22
2023-05-03T01:55:33.195Z,96.13
2023-05-03T01:57:59.922Z,97.07
2023-05-03T02:00:26.585Z,101.20
2023-05-03T02:02:53.247Z,100.75
2023-05-03T02:05:19.938Z,99.55
2023-05-03T02:07:46.564Z,101.05
2023-05-03T02:10:14.858Z,96.78
2023-05-03T02:12:42.795Z,97.78
2023-05-03T02:15:10.105Z,97.93
2023-05-03T02:17:37.461Z,98.32
2023-05-03T02:20:14.355Z,101.47
2023-05-03T02:22:41.087Z,98.05
2023-05-03T02:25:08.000Z,100.50
2023-05-03T02:27:34.645Z,97.72
2023-05-03T02:30:01.890Z,101.13
2023-05-03T02:32:28.812Z,99.22
2023-05-03T02:34:55.750Z,96.95
2023-05-03T02:37:22.457Z,99.03
2023-05-03T02:39:49.033Z,101.13
2023-05-03T02:42:16.138Z,110.07
2023-05-03T02:44:42.840Z,100.32
2023-05-03T02:47:10.194Z,99.22
2023-05-03T02:49:36.818Z,97.28
2023-05-03T02:52:03.564Z,102.38
2023-05-03T02:54:30.170Z,102.93
2023-05-03T02:56:56.795Z,102.07
2023-05-03T02:59:23.478Z,101.35
2023-05-03T03:01:50.296Z,98.72
2023-05-03T03:04:17.050Z,107.05
2023-05-03T03:06:43.758Z,104.40
2023-05-03T03:09:10.447Z,101.18
2023-05-03T03:11:37.093Z,97.25
2023-05-03T03:14:03.703Z,102.65
2023-05-03T03:16:30.474Z,98.03
2023-05-03T03:18:57.278Z,98.60
2023-05-03T03:21:23.939Z,103.78
2023-05-03T03:23:50.571Z,99.13
2023-05-03T03:26:17.242Z,103.65
2023-05-03T03:28:43.960Z,98.72
2023-05-03T03:31:10.695Z,104.13
2023-05-03T03:33:37.455Z,104.85
2023-05-03T03:36:06.567Z,101.38
2023-05-03T03:38:33.293Z,107.38
2023-05-03T03:40:59.931Z,103.13
2023-05-03T03:43:26.885Z,106.07
2023-05-03T03:45:54.025Z,100.57
2023-05-03T03:48:20.716Z,105.95
2023-05-03T03:50:47.688Z,98.57
2023-05-03T03:53:14.389Z,103.38
2023-05-03T03:55:41.032Z,99.13
2023-05-03T03:58:07.689Z,101.70
2023-05-03T04:00:35.874Z,99.63
2023-05-03T04:03:03.541Z,99.18
2023-05-03T04:05:31.466Z,104.43
2023-05-03T04:07:58.430Z,100.18
2023-05-03T04:10:25.124Z,98.38
2023-05-03T04:12:52.001Z,99.40
2023-05-03T04:15:18.737Z,98.40
2023-05-03T04:17:45.401Z,99.72
2023-05-03T04:20:13.684Z,99.32
2023-05-03T04:22:41.107Z,102.60
2023-05-03T04:25:11.411Z,100.82
2023-05-03T04:27:38.257Z,98.32
2023-05-03T04:30:06.366Z,100.03
2023-05-03T04:32:37.156Z,101.30
2023-05-03T04:35:09.419Z,103.05
2023-05-03T04:37:40.411Z,99.32
2023-05-03T04:40:09.470Z,104.63
2023-05-03T04:42:36.464Z,102.10
2023-05-03T04:45:03.810Z,99.65
2023-05-03T04:47:30.814Z,99.20
2023-05-03T04:49:57.566Z,103.05
2023-05-03T04:52:25.165Z,98.88
2023-05-03T04:54:51.869Z,102.70
2023-05-03T04:57:18.625Z,100.75
2023-05-03T04:59:45.341Z,100.45
2023-05-03T05:02:11.962Z,99.45
2023-05-03T05:04:38.648Z,102.07
2023-05-03T05:07:05.832Z,97.90
2023-05-03T05:09:32.461Z,100.28
2023-05-03T05:11:59.224Z,96.80
2023-05-03T05:14:28.315Z,101.60
2023-05-03T05:16:55.012Z,104.68
2023-05-03T05:19:21.793Z,103.10
2023-05-03T05:21:48.476Z,101.32
2023-05-03T05:24:15.202Z,113.65
2023-05-03T05:26:43.141Z,99.00
2023-05-03T05:29:10.010Z,99.20
2023-05-03T05:31:36.715Z,101.43
2023-05-03T05:34:03.993Z,100.07
2023-05-03T05:36:31.302Z,106.32
2023-05-03T05:38:57.946Z,101.65
2023-05-03T05:41:24.602Z,101.07
2023-05-03T05:43:51.477Z,101.30
2023-05-03T05:46:20.992Z,100.63
2023-05-03T05:48:47.853Z,102.60
2023-05-03T05:51:14.530Z,96.07
2023-05-03T05:53:41.162Z,98.85
2023-05-03T05:56:08.788Z,103.63
2023-05-03T05:58:37.402Z,97.88
2023-05-03T06:01:04.859Z,98.43
2023-05-03T06:03:33.046Z,96.70
2023-05-03T06:05:59.764Z,97.43
2023-05-03T06:08:26.703Z,99.55
2023-05-03T06:10:53.472Z,97.25
2023-05-03T06:13:20.107Z,100.18
2023-05-03T06:15:46.743Z,96.22
2023-05-03T06:18:13.484Z,100.95
2023-05-03T06:20:40.223Z,95.93
2023-05-03T06:23:06.846Z,102.15
2023-05-03T06:25:36.015Z,94.53
2023-05-03T06:28:03.606Z,91.88
2023-05-03T06:30:31.065Z,93.95
2023-05-03T06:32:57.697Z,94.07
2023-05-03T06:35:24.412Z,93.45
2023-05-03T06:37:51.992Z,93.75
2023-05-03T06:40:18.681Z,88.10
2023-05-03T06:42:45.310Z,89.75
2023-05-03T06:45:12.309Z,96.57
2023-05-03T06:47:42.461Z,89.43
2023-05-03T06:50:10.511Z,86.23
2023-05-03T06:52:37.307Z,88.83
2023-05-03T06:55:04.845Z,88.80
2023-05-03T06:57:31.624Z,85.27
2023-05-03T06:59:58.332Z,87.53
2023-05-03T07:02:26.755Z,84.40
2023-05-03T07:04:53.589Z,86.17
2023-05-03T07:07:20.384Z,83.20
2023-05-03T07:09:47.227Z,90.70
2023-05-03T07:12:13.858Z,85.20
2023-05-03T07:14:40.664Z,87.83
2023-05-03T07:17:07.471Z,84.43
2023-05-03T07:19:34.180Z,88.60
2023-05-03T07:22:03.068Z,84.43
2023-05-03T07:24:29.883Z,84.93
2023-05-03T07:26:58.035Z,86.37
2023-05-03T07:29:24.718Z,85.80
2023-05-03T07:31:53.508Z,91.43
2023-05-03T07:34:20.715Z,87.90
2023-05-03T07:36:47.317Z,90.40
2023-05-03T07:39:13.965Z,91.25
2023-05-03T07:41:40.703Z,87.85
2023-05-03T07:44:07.832Z,89.28
2023-05-03T07:46:35.334Z,90.47
2023-05-03T07:49:04.461Z,87.17
2023-05-03T07:51:36.086Z,95.60
2023-05-03T07:54:02.931Z,92.63
2023-05-03T07:56:29.741Z,91.30
2023-05-03T07:59:08.485Z,95.78
2023-05-03T08:01:36.444Z,88.63
2023-05-03T08:04:03.485Z,87.77
2023-05-03T08:06:31.727Z,89.70
2023-05-03T08:08:58.517Z,93.60
2023-05-03T08:11:27.239Z,87.35
2023-05-03T08:13:53.825Z,87.87
2023-05-03T08:16:21.321Z,89.53
2023-05-03T08:18:48.097Z,89.37
2023-05-03T08:21:15.079Z,88.97
2023-05-03T08:23:42.419Z,88.27
2023-05-03T08:26:09.970Z,87.73
2023-05-03T08:28:36.621Z,89.83
2023-05-03T08:31:06.607Z,93.20
2023-05-03T08:33:33.362Z,89.47
2023-05-03T08:36:00.036Z,87.87
2023-05-03T08:38:26.643Z,89.73
2023-05-03T08:40:55.624Z,90.83
2023-05-03T08:43:27.340Z,93.30
2023-05-03T08:45:54.077Z,87.10
2023-05-03T08:48:21.375Z,90.87
2023-05-03T08:50:51.481Z,88.10
2023-05-03T08:53:18.356Z,87.00
2023-05-03T08:55:45.335Z,87.40
2023-05-03T08:58:13.193Z,86.53
2023-05-03T09:00:44.548Z,90.00
2023-05-03T09:03:11.758Z,86.10
2023-05-03T09:05:44.105Z,88.47
2023-05-03T09:08:13.418Z,86.60
2023-05-03T09:10:41.829Z,88.67
2023-05-03T09:13:09.852Z,92.40
2023-05-03T09:15:37.102Z,88.73
2023-05-03T09:18:08.565Z,89.47
2023-05-03T09:20:36.952Z,85.53
2023-05-03T09:23:03.768Z,87.93
2023-05-03T09:25:42.585Z,85.80
2023-05-03T09:28:09.369Z,86.77
2023-05-03T09:30:36.735Z,90.37
2023-05-03T09:33:04.481Z,92.77
2023-05-03T09:35:32.482Z,89.57
2023-05-03T09:38:00.050Z,86.20
2023-05-03T09:40:27.908Z,95.23
2023-05-03T09:43:11.196Z,91.00
2023-05-03T09:45:38.944Z,89.17
2023-05-03T09:48:07.578Z,86.10
2023-05-03T09:50:36.531Z,88.13
2023-05-03T09:53:07.339Z,85.77
2023-05-03T09:55:38.679Z,89.00
2023-05-03T09:58:06.606Z,84.87
2023-05-03T10:00:52.721Z,87.03
2023-05-03T10:03:26.107Z,85.77
2023-05-03T10:05:53.783Z,88.07
2023-05-03T10:08:29.924Z,88.83
2023-05-03T10:10:56.745Z,84.97
2023-05-03T10:13:24.333Z,85.87
2023-05-03T10:16:03.778Z,84.90
2023-05-03T10:18:33.285Z,92.80
2023-05-03T10:21:33.381Z,84.60
2023-05-03T10:24:13.505Z,86.00
2023-05-03T10:26:41.748Z,86.93
2023-05-03T10:29:34.554Z,85.63
2023-05-03T10:32:04.180Z,85.87
2023-05-03T10:34:32.625Z,85.47
2023-05-03T10:37:02.905Z,89.03
2023-05-03T10:39:31.048Z,85.10
2023-05-03T10:42:08.971Z,84.97
2023-05-03T10:44:51.510Z,88.37
2023-05-03T10:47:19.896Z,83.67
2023-05-03T10:49:46.584Z,84.60
2023-05-03T10:52:38.088Z,88.97
2023-05-03T10:55:12.031Z,82.93
2023-05-03T10:57:41.371Z,87.10
2023-05-03T11:00:13.758Z,92.60
2023-05-03T11:03:10.850Z,83.97
2023-05-03T11:05:39.788Z,87.93
2023-05-03T11:08:13.196Z,86.60
2023-05-03T11:10:41.088Z,91.40
2023-05-03T11:13:07.807Z,82.60
2023-05-03T11:15:34.649Z,86.50
2023-05-03T11:18:01.610Z,84.70
2023-05-03T11:20:28.573Z,84.03
2023-05-03T11:22:56.544Z,85.70
2023-05-03T11:25:23.212Z,83.90
2023-05-03T11:27:49.988Z,84.67
2023-05-03T11:30:18.047Z,82.37
2023-05-03T11:32:44.859Z,82.53
2023-05-03T11:35:17.555Z,82.90
2023-05-03T11:37:44.748Z,88.00
2023-05-03T11:40:18.647Z,83.60
2023-05-03T11:42:56.545Z,86.10
2023-05-03T11:45:32.350Z,82.40
2023-05-03T11:47:59.528Z,86.10
2023-05-03T11:50:54.250Z,83.17
2023-05-03T11:53:22.277Z,84.87
2023-05-03T11:55:53.255Z,85.10
2023-05-03T11:58:24.886Z,83.60
2023-05-03T12:00:53.268Z,85.97
2023-05-03T12:03:31.132Z,90.57
2023-05-03T12:06:00.722Z,87.13
2023-05-03T12:08:36.092Z,86.00
2023-05-03T12:11:07.581Z,83.00
2023-05-03T12:13:39.792Z,82.97
2023-05-03T12:16:13.792Z,83.00
2023-05-03T12:18:57.941Z,84.00
2023-05-03T12:23:57.360Z,87.10
2023-05-03T12:26:25.557Z,84.50
2023-05-03T12:28:55.234Z,84.60
2023-05-03T12:31:23.352Z,90.90
2023-05-03T12:34:11.372Z,87.83
2023-05-03T12:36:38.248Z,85.27
2023-05-03T12:39:09.151Z,84.57
2023-05-03T12:44:09.850Z,86.90
2023-05-03T12:46:38.315Z,83.27
2023-05-03T12:49:08.235Z,85.20
2023-05-03T12:51:35.939Z,88.00
2023-05-03T12:54:09.972Z,86.10
2023-05-03T12:56:40.236Z,82.77
2023-05-03T12:59:39.488Z,83.83
2023-05-03T13:04:55.936Z,84.40
2023-05-03T13:07:14.783Z,88.20
2023-05-03T13:12:33.461Z,87.03
2023-05-03T13:15:05.306Z,83.50
2023-05-03T13:17:32.590Z,83.37
2023-05-03T13:19:59.616Z,87.20
2023-05-03T13:22:26.725Z,84.57
2023-05-03T13:24:53.444Z,82.40
2023-05-03T13:27:20.070Z,85.37
2023-05-03T13:29:49.111Z,84.80
2023-05-03T13:32:16.864Z,84.40
2023-05-03T13:34:44.120Z,85.27
2023-05-03T13:37:11.576Z,84.80
2023-05-03T13:39:38.480Z,85.30
2023-05-03T13:42:05.168Z,82.53
2023-05-03T13:44:31.824Z,87.10
2023-05-03T13:46:58.462Z,82.47
2023-05-03T13:49:25.498Z,88.83
2023-05-03T13:51:52.192Z,84.30
2023-05-03T13:54:18.938Z,83.67
2023-05-03T13:56:45.678Z,84.30
2023-05-03T13:59:16.048Z,84.00
2023-05-03T14:01:43.235Z,82.37
2023-05-03T14:04:10.639Z,82.43
2023-05-03T14:06:40.219Z,81.60
2023-05-03T14:09:08.856Z,83.07
2023-05-03T14:11:35.754Z,85.60
2023-05-03T14:14:03.275Z,85.90
2023-05-03T14:18:59.907Z,84.50
2023-05-03T14:21:28.376Z,86.17
2023-05-03T14:23:56.587Z,84.07
2023-05-03T14:26:24.195Z,86.27
2023-05-03T14:28:50.907Z,87.83
2023-05-03T14:31:17.560Z,83.90
2023-05-03T14:33:44.268Z,84.77
2023-05-03T14:36:11.335Z,85.30
2023-05-03T14:38:38.001Z,86.67
2023-05-03T14:41:05.009Z,83.10
2023-05-03T14:43:32.483Z,85.50
2023-05-03T14:45:59.190Z,83.40
2023-05-03T14:48:26.165Z,87.07
2023-05-03T14:50:53.458Z,84.60
2023-05-03T14:53:21.508Z,84.63
2023-05-03T14:55:48.273Z,83.93
2023-05-03T14:58:15.681Z,84.50
2023-05-03T15:00:43.374Z,87.33
2023-05-03T15:03:12.040Z,95.43
2023-05-03T15:05:46.542Z,86.03
2023-05-03T15:08:15.257Z,85.27
2023-05-03T15:10:46.029Z,83.23
2023-05-03T15:13:13.561Z,83.10
2023-05-03T15:15:42.802Z,85.40
2023-05-03T15:18:10.001Z,86.97
2023-05-03T15:20:36.905Z,84.20
2023-05-03T15:23:04.853Z,85.97
2023-05-03T15:25:32.195Z,83.70
2023-05-03T15:28:00.615Z,84.43
2023-05-03T15:30:29.547Z,84.40
2023-05-03T15:32:56.203Z,84.70
2023-05-03T15:35:22.847Z,86.17
2023-05-03T15:37:49.573Z,85.10
2023-05-03T15:40:18.385Z,87.30
2023-05-03T15:42:45.056Z,87.87
2023-05-03T15:45:13.258Z,85.40
2023-05-03T15:47:40.038Z,86.60
2023-05-03T15:50:07.729Z,84.97
2023-05-03T15:52:34.965Z,84.57
2023-05-03T15:55:01.795Z,85.10
2023-05-03T15:57:30.117Z,87.70
2023-05-03T15:59:57.189Z,91.00
2023-05-03T16:02:23.938Z,86.17
2023-05-03T16:04:50.917Z,86.67
2023-05-03T16:07:17.874Z,93.63
2023-05-03T16:09:44.608Z,85.40
2023-05-03T16:12:11.312Z,85.90
2023-05-03T16:14:38.038Z,86.00
2023-05-03T16:17:04.733Z,87.60
2023-05-03T16:19:31.995Z,85.80
2023-05-03T16:21:58.981Z,85.90
2023-05-03T16:24:25.809Z,86.20
2023-05-03T16:26:52.917Z,86.03
2023-05-03T16:29:20.002Z,86.47
2023-05-03T16:31:47.161Z,85.80
2023-05-03T16:34:14.299Z,84.80
2023-05-03T16:36:43.801Z,88.53
2023-05-03T16:39:14.374Z,88.30
2023-05-03T16:41:41.612Z,88.40
2023-05-03T16:44:08.850Z,90.53
2023-05-03T16:46:36.641Z,87.68
2023-05-03T16:49:04.236Z,89.27
2023-05-03T16:51:31.594Z,85.90
2023-05-03T16:53:58.990Z,85.80
2023-05-03T16:56:26.257Z,87.07
2023-05-03T16:58:53.486Z,85.13
2023-05-03T17:01:20.292Z,85.40
2023-05-03T17:03:47.003Z,90.30
2023-05-03T17:06:13.842Z,84.70
2023-05-03T17:08:40.530Z,86.37
2023-05-03T17:11:09.768Z,88.60
2023-05-03T17:13:36.675Z,85.65
2023-05-03T17:16:08.971Z,86.50
2023-05-03T17:18:37.671Z,85.88
2023-05-03T17:21:05.113Z,87.47
2023-05-03T17:23:41.769Z,87.82
2023-05-03T17:26:10.170Z,85.85
2023-05-03T17:28:37.305Z,88.10
2023-05-03T17:31:04.213Z,86.90
2023-05-03T17:33:30.972Z,87.87
2023-05-03T17:35:57.762Z,86.83
2023-05-03T17:38:24.387Z,86.13
2023-05-03T17:40:51.298Z,88.65
2023-05-03T17:43:18.238Z,86.88
2023-05-03T17:45:47.329Z,87.67
2023-05-03T17:48:14.674Z,88.13
2023-05-03T17:50:46.136Z,87.13
2023-05-03T17:53:12.799Z,88.20
2023-05-03T17:55:39.447Z,86.80
2023-05-03T17:58:06.434Z,89.88
2023-05-03T18:00:33.658Z,86.57
2023-05-03T18:03:00.788Z,88.95
2023-05-03T18:05:27.597Z,85.85
2023-05-03T18:07:54.370Z,85.57
2023-05-03T18:10:21.288Z,85.72
2023-05-03T18:12:48.235Z,89.07
2023-05-03T18:15:15.761Z,88.17
2023-05-03T18:17:43.860Z,95.10
2023-05-03T18:20:11.041Z,86.47
2023-05-03T18:22:38.111Z,86.05
2023-05-03T18:25:07.466Z,88.53
2023-05-03T18:27:37.265Z,88.45
2023-05-03T18:30:06.582Z,86.38
2023-05-03T18:32:34.218Z,89.75
2023-05-03T18:35:01.494Z,88.25
2023-05-03T18:37:28.508Z,87.50
2023-05-03T18:39:55.301Z,87.15
2023-05-03T18:42:22.581Z,90.63
2023-05-03T18:44:49.482Z,88.97
2023-05-03T18:47:20.485Z,88.97
2023-05-03T18:49:53.155Z,89.80
2023-05-03T18:52:20.771Z,87.22
2023-05-03T18:54:48.180Z,92.65
2023-05-03T18:57:14.975Z,88.75
2023-05-03T18:59:52.416Z,88.65
2023-05-03T19:02:25.220Z,94.05
2023-05-03T19:04:52.466Z,89.38
2023-05-03T19:07:19.353Z,90.80
2023-05-03T19:09:45.968Z,93.35
2023-05-03T19:12:13.554Z,91.45
2023-05-03T19:14:43.283Z,88.65
2023-05-03T19:17:10.158Z,88.97
2023-05-03T19:19:36.855Z,90.65
2023-05-03T19:22:03.543Z,93.00
2023-05-03T19:24:30.335Z,93.35
2023-05-03T19:26:57.214Z,91.70
2023-05-03T19:29:23.949Z,89.80
2023-05-03T19:31:50.573Z,92.75
2023-05-03T19:34:17.687Z,90.43
2023-05-03T19:36:44.301Z,91.70
2023-05-03T19:39:11.397Z,90.93
2023-05-03T19:41:38.727Z,92.60
2023-05-03T19:44:05.923Z,89.72
2023-05-03T19:46:33.996Z,89.95
2023-05-03T19:49:01.435Z,109.93
2023-05-03T19:51:28.146Z,92.45
2023-05-03T19:53:55.314Z,91.47
2023-05-03T19:56:22.160Z,91.07
2023-05-03T19:58:50.572Z,92.78
2023-05-03T20:01:17.491Z,92.68
2023-05-03T20:03:44.616Z,91.55
2023-05-03T20:06:11.435Z,91.00
2023-05-03T20:08:38.060Z,90.65
2023-05-03T20:11:04.755Z,92.63
2023-05-03T20:13:32.082Z,95.68
2023-05-03T20:15:58.743Z,92.35
2023-05-03T20:18:25.615Z,90.18
2023-05-03T20:20:52.280Z,92.55
2023-05-03T20:23:18.924Z,91.43
2023-05-03T20:25:45.532Z,91.55
2023-05-03T20:28:12.923Z,90.38
2023-05-03T20:30:39.715Z,94.80
2023-05-03T20:33:06.601Z,91.97
2023-05-03T20:35:33.284Z,94.68
2023-05-03T20:37:59.935Z,91.40
2023-05-03T20:40:26.634Z,93.88
2023-05-03T20:42:53.314Z,91.32
2023-05-03T20:45:19.924Z,94.50
2023-05-03T20:47:46.668Z,90.68
2023-05-03T20:50:13.320Z,91.47
2023-05-03T20:52:40.040Z,91.10
2023-05-03T20:55:07.209Z,95.40
2023-05-03T20:57:33.872Z,92.95
2023-05-03T21:00:02.325Z,92.22
2023-05-03T21:02:29.369Z,93.30
2023-05-03T21:04:56.070Z,93.38
2023-05-03T21:07:22.717Z,93.32
2023-05-03T21:09:49.378Z,94.90
2023-05-03T21:12:16.107Z,93.55
2023-05-03T21:14:42.753Z,96.97
2023-05-03T21:17:12.088Z,97.95
2023-05-03T21:19:39.691Z,95.28
2023-05-03T21:22:08.384Z,92.95
2023-05-03T21:24:35.590Z,96.05
2023-05-03T21:27:02.654Z,96.40
2023-05-03T21:29:29.369Z,93.82
2023-05-03T21:31:56.141Z,95.68
2023-05-03T21:34:22.878Z,95.15
2023-05-03T21:36:50.461Z,95.00
2023-05-03T21:39:17.190Z,94.60
2023-05-03T21:41:43.814Z,93.13
2023-05-03T21:44:10.537Z,93.03
2023-05-03T21:46:37.249Z,97.15
2023-05-03T21:49:03.928Z,92.70
2023-05-03T21:51:31.161Z,94.90
2023-05-03T21:53:57.812Z,92.55
2023-05-03T21:56:24.459Z,94.13
2023-05-03T21:58:51.097Z,94.57
2023-05-03T22:01:19.997Z,91.82
2023-05-03T22:03:46.752Z,95.05
2023-05-03T22:06:13.485Z,95.40
2023-05-03T22:08:40.113Z,97.88
2023-05-03T22:11:07.224Z,94.90
2023-05-03T22:13:34.513Z,94.18
2023-05-03T22:16:08.702Z,93.28
2023-05-03T22:18:35.601Z,98.20
2023-05-03T22:21:02.948Z,98.82
2023-05-03T22:23:29.755Z,93.35
2023-05-03T22:25:56.934Z,103.47
2023-05-03T22:28:23.627Z,96.35
2023-05-03T22:30:50.301Z,95.05
2023-05-03T22:33:16.953Z,96.05
2023-05-03T22:35:43.785Z,95.35
2023-05-03T22:38:10.721Z,98.00
2023-05-03T22:40:37.638Z,95.18
2023-05-03T22:43:04.701Z,96.88
2023-05-03T22:45:31.421Z,92.22
2023-05-03T22:47:58.146Z,93.82
2023-05-03T22:50:24.829Z,95.00
2023-05-03T22:52:51.480Z,96.05
2023-05-03T22:55:18.109Z,96.35
2023-05-03T22:57:44.749Z,93.03
2023-05-03T23:00:12.291Z,92.72
2023-05-03T23:02:39.075Z,93.28
2023-05-03T23:05:06.693Z,93.80
2023-05-03T23:07:33.300Z,92.38
2023-05-03T23:10:05.002Z,92.43
2023-05-03T23:12:32.313Z,92.50
2023-05-03T23:14:58.998Z,95.55
2023-05-03T23:17:25.775Z,93.57
2023-05-03T23:19:52.634Z,93.88
2023-05-03T23:22:19.290Z,92.80
2023-05-03T23:24:45.912Z,92.70
2023-05-03T23:27:13.064Z,96.07
2023-05-03T23:29:40.264Z,94.15
2023-05-03T23:32:07.500Z,93.97
2023-05-03T23:34:34.783Z,100.95
2023-05-03T23:37:01.398Z,92.50
2023-05-03T23:39:28.055Z,96.53
2023-05-03T23:41:54.658Z,97.07
2023-05-03T23:44:21.386Z,92.28
2023-05-03T23:46:48.001Z,93.35
2023-05-03T23:49:14.615Z,93.88
2023-05-03T23:51:41.214Z,92.93
2023-05-03T23:54:07.836Z,99.47
2023-05-03T23:56:34.426Z,92.82
2023-05-03T23:59:01.739Z,98.05
